Погода Жерониму-Монтейруна 2 недели

Эспирито-Санто, Бразилия

15 - 28 июня
  • 15июня
    Сегодня
    +14°
    +31°
    Ясно и безоблачно
    ВремяПогодаТемператураВлажностьДавлениеВетер, м/сВероятность осадков
    00:00Ясно и безоблачно+15°C75 %750 мм1.3 м/с5 %
    03:00Ясно и безоблачно+13°C79 %751 мм1.6 м/с5 %
    06:00Ясно и безоблачно+13°C81 %751 мм1.5 м/с5 %
    09:00Ясно и безоблачно+21°C57 %752 мм0.7 м/с5 %
    12:00Ясно и безоблачно+28°C46 %751 мм0.5 м/с5 %
    15:00Ясно и безоблачно+31°C43 %750 мм1.8 м/с5 %
    18:00Ясно и безоблачно+23°C61 %750 мм0.9 м/с5 %
    21:00Ясно и безоблачно+19°C80 %750 мм1.0 м/с5 %
  • 16июня
    Воскресенье
    +14°
    +31°
    Ясно и безоблачно
    ВремяПогодаТемператураВлажностьДавлениеВетер, м/сВероятность осадков
    00:00Ясно и безоблачно+16°C82 %750 мм1.5 м/с5 %
    03:00Ясно и безоблачно+15°C87 %749 мм1.5 м/с5 %
    06:00Ясно и безоблачно+14°C91 %749 мм1.5 м/с5 %
    09:00Ясно и безоблачно+22°C69 %751 мм0.8 м/с2 %
    12:00Ясно и безоблачно+28°C52 %749 мм1.5 м/с2 %
    15:00Ясно и безоблачно+31°C43 %748 мм2.0 м/с5 %
    18:00Ясно и безоблачно+23°C57 %748 мм0.8 м/с5 %
    21:00Ясно и безоблачно+20°C74 %748 мм1.1 м/с5 %
  • 17июня
    Понедельник
    +14°
    +32°
    Ясно и безоблачно
    ВремяПогодаТемператураВлажностьДавлениеВетер, м/сВероятность осадков
    00:00Ясно и безоблачно+16°C81 %748 мм1.3 м/с5 %
    03:00Ясно и безоблачно+14°C88 %747 мм1.4 м/с5 %
    06:00Ясно и безоблачно+14°C91 %747 мм1.6 м/с5 %
    09:00Ясно и безоблачно+22°C65 %749 мм0.8 м/с5 %
    12:00Ясно и безоблачно+28°C46 %748 мм0.6 м/с5 %
    15:00Ясно и безоблачно+31°C40 %746 мм1.7 м/с5 %
    18:00Ясно и безоблачно+23°C54 %746 мм0.8 м/с5 %
    21:00Ясно и безоблачно+19°C69 %747 мм1.1 м/с5 %
  • 18июня
    Вторник
    +14°
    +32°
    Ясно и безоблачно
    ВремяПогодаТемператураВлажностьДавлениеВетер, м/сВероятность осадков
    00:00Ясно и безоблачно+16°C72 %747 мм1.7 м/с5 %
    03:00Ясно и безоблачно+15°C83 %746 мм1.5 м/с5 %
    06:00Ясно и безоблачно+15°C90 %747 мм1.5 м/с5 %
    09:00Ясно и безоблачно+23°C65 %748 мм1.0 м/с5 %
    12:00Ясно и безоблачно+29°C45 %747 мм2.9 м/с3 %
    15:00Ясно и безоблачно+32°C38 %746 мм2.4 м/с10 %
    18:00Ясно и безоблачно+23°C56 %746 мм2.0 м/с18 %
    21:00Ясно и безоблачно+20°C65 %747 мм1.5 м/с5 %
  • 19июня
    Среда
    +14°
    +33°
    Ясно и безоблачно
    ВремяПогодаТемператураВлажностьДавлениеВетер, м/сВероятность осадков
    00:00Ясно и безоблачно+17°C75 %747 мм1.3 м/с4 %
    03:00Ясно и безоблачно+16°C77 %747 мм1.8 м/с4 %
    06:00Ясно и безоблачно+15°C83 %748 мм1.6 м/с4 %
    09:00Ясно и безоблачно+23°C63 %749 мм1.1 м/с4 %
    12:00Ясно и безоблачно+29°C40 %748 мм2.3 м/с6 %
    15:00Ясно и безоблачно+32°C37 %747 мм2.1 м/с4 %
    18:00Ясно и безоблачно+24°C50 %747 мм1.2 м/с5 %
    21:00Ясно и безоблачно+20°C65 %748 мм1.4 м/с4 %
Мы используем cookies
Соглашаюсь